Atlantic Hero — C6XD5 — position and weather

sailwx.info

Track history (hours):
 
Tides and Currents Weather Stations Pressure Air Temp Water Temp Dewpoint Dewpoint Depression Visibility Wind Speed Wind Dir Waves Ship Positions

Atlantic Hero

Last reported at 2017-Nov-18 02:29 UTC. Time now 2017-Nov-18 02:48 UTC.
Position N 35°24' E 139°37'.

Length 225 m; draft 11.7 m.

Type: Cargo ship. MMSI: 311005500.

Date/timePositionNaut miles runAvg speedWind from/ knotsBaromVisibWave heightAir tempDewpointWater temp
2017-Nov-18 02:29N 35°24' E 139°37'0 0.0
2017-Nov-18 01:59N 35°24' E 139°37'0 0.0
2017-Nov-18 01:29N 35°24' E 139°37'0 0.0
2017-Nov-18 00:59N 35°24' E 139°37'0 0.0
2017-Nov-18 00:29N 35°24' E 139°37'0 0.0
2017-Nov-17 23:59N 35°24' E 139°37'0 0.0
2017-Nov-17 23:29N 35°24' E 139°37'0 0.0
2017-Nov-17 22:59N 35°24' E 139°37'0 0.0
2017-Nov-17 22:29N 35°24' E 139°37'0 0.0
2017-Nov-17 21:59N 35°24' E 139°37'0 0.0
2017-Nov-17 21:29N 35°24' E 139°37'0 0.0
2017-Nov-17 20:59N 35°24' E 139°37'0 0.0
2017-Nov-17 20:29N 35°24' E 139°37'0 0.0
2017-Nov-17 19:59N 35°24' E 139°37'0 0.0
2017-Nov-17 19:29N 35°24' E 139°37'0 0.0
2017-Nov-17 18:59N 35°24' E 139°37'0 0.0
2017-Nov-17 18:29N 35°24' E 139°37'0 0.0
2017-Nov-17 17:59N 35°24' E 139°37'0 0.0
2017-Nov-17 17:29N 35°24' E 139°37'0 0.0
2017-Nov-17 16:59N 35°24' E 139°37'0 0.0
2017-Nov-17 16:29N 35°24' E 139°37'0 0.0
2017-Nov-17 15:59N 35°24' E 139°37'0 0.0
2017-Nov-17 15:29N 35°24' E 139°37'0 0.0
2017-Nov-17 14:59N 35°24' E 139°37'0 0.0
2017-Nov-17 14:29N 35°24' E 139°37'0 0.0
2017-Nov-17 13:59N 35°24' E 139°37'0 0.0
2017-Nov-17 13:26N 35°24' E 139°37'0 0.0
2017-Nov-17 12:56N 35°24' E 139°37'0 0.0
2017-Nov-17 12:29N 35°24' E 139°37'0 0.0
2017-Nov-17 11:59N 35°24' E 139°37'0 0.0
2017-Nov-17 11:29N 35°24' E 139°37'0 0.0
2017-Nov-17 10:59N 35°24' E 139°37'0 0.0
2017-Nov-17 10:29N 35°24' E 139°37'0 0.0
2017-Nov-17 09:59N 35°24' E 139°37'0 0.0
2017-Nov-17 09:29N 35°24' E 139°37'0 0.0
2017-Nov-17 08:59N 35°24' E 139°37'0 0.0
2017-Nov-17 08:29N 35°24' E 139°37'0 0.0
2017-Nov-17 07:59N 35°24' E 139°37'0 0.0
2017-Nov-17 07:26N 35°24' E 139°37'0 0.0
2017-Nov-17 06:59N 35°24' E 139°37'0 0.0
2017-Nov-17 06:30N 35°24' E 139°37'0 0.0
2017-Nov-17 06:00N 35°24' E 139°37'0 0.7
2017-Nov-17 05:30N 35°24' E 139°38'2 4.1
2017-Nov-17 05:00N 35°24' E 139°40'5 9.3
2017-Nov-17 04:30N 35°20' E 139°43'611.1
2017-Nov-17 04:00N 35°15' E 139°47'5 9.9
2017-Nov-17 03:30N 35°10' E 139°47'510.6
2017-Nov-17 03:00N 35°05' E 139°44'510.4
2017-Nov-17 02:30N 35°00' E 139°41'4 8.8
2017-Nov-17 02:00N 34°56' E 139°40'611.6
2017-Nov-17 01:30N 34°50' E 139°41'913.9
2017-Nov-17 00:50N 34°46' E 139°51'  
Track history (hours):
 
Tides and Currents Weather Stations Pressure Air Temp Water Temp Dewpoint Dewpoint Depression Visibility Wind Speed Wind Dir Waves Ship Positions

Atlantic Hero

Last reported at 2017-Nov-18 02:29 UTC. Time now 2017-Nov-18 02:48 UTC.
Position N 35°24' E 139°37'.

Length 225 m; draft 11.7 m.

Type: Cargo ship. MMSI: 311005500.

Date/timePositionNaut miles runAvg speedWind from/ knotsBaromVisibWave heightAir tempDewpointWater temp
2017-Nov-18 02:29N 35°24' E 139°37'0 0.0
2017-Nov-18 01:59N 35°24' E 139°37'0 0.0
2017-Nov-18 01:29N 35°24' E 139°37'0 0.0
2017-Nov-18 00:59N 35°24' E 139°37'0 0.0
2017-Nov-18 00:29N 35°24' E 139°37'0 0.0
2017-Nov-17 23:59N 35°24' E 139°37'0 0.0
2017-Nov-17 23:29N 35°24' E 139°37'0 0.0
2017-Nov-17 22:59N 35°24' E 139°37'0 0.0
2017-Nov-17 22:29N 35°24' E 139°37'0 0.0
2017-Nov-17 21:59N 35°24' E 139°37'0 0.0
2017-Nov-17 21:29N 35°24' E 139°37'0 0.0
2017-Nov-17 20:59N 35°24' E 139°37'0 0.0
2017-Nov-17 20:29N 35°24' E 139°37'0 0.0
2017-Nov-17 19:59N 35°24' E 139°37'0 0.0
2017-Nov-17 19:29N 35°24' E 139°37'0 0.0
2017-Nov-17 18:59N 35°24' E 139°37'0 0.0
2017-Nov-17 18:29N 35°24' E 139°37'0 0.0
2017-Nov-17 17:59N 35°24' E 139°37'0 0.0
2017-Nov-17 17:29N 35°24' E 139°37'0 0.0
2017-Nov-17 16:59N 35°24' E 139°37'0 0.0
2017-Nov-17 16:29N 35°24' E 139°37'0 0.0
2017-Nov-17 15:59N 35°24' E 139°37'0 0.0
2017-Nov-17 15:29N 35°24' E 139°37'0 0.0
2017-Nov-17 14:59N 35°24' E 139°37'0 0.0
2017-Nov-17 14:29N 35°24' E 139°37'0 0.0
2017-Nov-17 13:59N 35°24' E 139°37'0 0.0
2017-Nov-17 13:26N 35°24' E 139°37'0 0.0
2017-Nov-17 12:56N 35°24' E 139°37'0 0.0
2017-Nov-17 12:29N 35°24' E 139°37'0 0.0
2017-Nov-17 11:59N 35°24' E 139°37'0 0.0
2017-Nov-17 11:29N 35°24' E 139°37'0 0.0
2017-Nov-17 10:59N 35°24' E 139°37'0 0.0
2017-Nov-17 10:29N 35°24' E 139°37'0 0.0
2017-Nov-17 09:59N 35°24' E 139°37'0 0.0
2017-Nov-17 09:29N 35°24' E 139°37'0 0.0
2017-Nov-17 08:59N 35°24' E 139°37'0 0.0
2017-Nov-17 08:29N 35°24' E 139°37'0 0.0
2017-Nov-17 07:59N 35°24' E 139°37'0 0.0
2017-Nov-17 07:26N 35°24' E 139°37'0 0.0
2017-Nov-17 06:59N 35°24' E 139°37'0 0.0
2017-Nov-17 06:30N 35°24' E 139°37'0 0.0
2017-Nov-17 06:00N 35°24' E 139°37'0 0.7
2017-Nov-17 05:30N 35°24' E 139°38'2 4.1
2017-Nov-17 05:00N 35°24' E 139°40'5 9.3
2017-Nov-17 04:30N 35°20' E 139°43'611.1
2017-Nov-17 04:00N 35°15' E 139°47'5 9.9
2017-Nov-17 03:30N 35°10' E 139°47'510.6
2017-Nov-17 03:00N 35°05' E 139°44'510.4
2017-Nov-17 02:30N 35°00' E 139°41'4 8.8
2017-Nov-17 02:00N 34°56' E 139°40'611.6
2017-Nov-17 01:30N 34°50' E 139°41'913.9
2017-Nov-17 00:50N 34°46' E 139°51'  

Dump ship's entire track history